createdAt,value
2019-01-19T00:00:17.614Z,82.00
2019-01-19T00:03:00.862Z,81.90
2019-01-19T00:05:55.245Z,81.70
2019-01-19T00:08:27.423Z,81.60
2019-01-19T00:11:11.566Z,81.70
2019-01-19T00:13:57.167Z,81.70
2019-01-19T00:16:50.548Z,81.70
2019-01-19T00:19:42.946Z,81.50
2019-01-19T00:22:23.415Z,80.80
2019-01-19T00:25:23.866Z,81.30
2019-01-19T00:27:58.673Z,81.40
2019-01-19T00:30:30.551Z,81.40
2019-01-19T00:33:17.512Z,81.10
2019-01-19T00:36:01.714Z,81.20
2019-01-19T00:38:56.495Z,81.20
2019-01-19T00:41:48.491Z,81.40
2019-01-19T00:44:32.211Z,81.60
2019-01-19T00:47:24.441Z,81.80
2019-01-19T00:49:59.092Z,81.90
2019-01-19T00:52:36.579Z,82.20
2019-01-19T00:55:17.415Z,82.30
2019-01-19T00:57:55.128Z,82.50
2019-01-19T01:00:37.103Z,82.50
2019-01-19T01:03:17.361Z,82.50
2019-01-19T01:05:58.125Z,82.30
2019-01-19T01:08:46.892Z,82.40
2019-01-19T01:11:24.590Z,82.40
2019-01-19T01:14:22.294Z,82.80
2019-01-19T01:16:57.108Z,83.30
2019-01-19T01:20:00.787Z,83.50
2019-01-19T01:22:42.012Z,83.70
2019-01-19T01:25:28.261Z,83.60
2019-01-19T01:28:03.182Z,83.40
2019-01-19T01:30:37.850Z,83.40
2019-01-19T01:33:27.443Z,83.40
2019-01-19T01:36:25.212Z,83.30
2019-01-19T01:39:00.124Z,83.20
2019-01-19T01:41:37.738Z,83.20
2019-01-19T01:44:26.907Z,83.10
2019-01-19T01:47:10.444Z,83.00
2019-01-19T01:49:48.403Z,82.90
2019-01-19T01:52:43.309Z,82.90
2019-01-19T01:55:15.213Z,82.90
2019-01-19T01:57:46.364Z,83.10
2019-01-19T02:00:33.465Z,83.20
2019-01-19T02:03:31.977Z,83.20
2019-01-19T02:06:16.039Z,83.60
2019-01-19T02:09:14.466Z,83.60
2019-01-19T02:11:56.020Z,83.70
2019-01-19T02:14:34.161Z,83.90
2019-01-19T02:17:46.179Z,84.20
2019-01-19T02:20:27.798Z,84.20
2019-01-19T02:23:11.248Z,84.10
2019-01-19T02:26:04.907Z,84.10
2019-01-19T02:28:44.891Z,84.10
2019-01-19T02:31:59.630Z,83.90
2019-01-19T02:34:49.588Z,83.70
2019-01-19T02:37:47.812Z,83.40
2019-01-19T02:40:52.329Z,83.40
2019-01-19T02:44:06.080Z,83.20
2019-01-19T02:50:15.976Z,83.00
2019-01-19T02:53:13.239Z,83.00
2019-01-19T02:55:51.592Z,83.70
2019-01-19T02:58:23.655Z,83.00
2019-01-19T03:01:36.239Z,83.20
2019-01-19T03:04:20.251Z,83.30
2019-01-19T03:06:52.159Z,83.50
2019-01-19T03:09:32.669Z,83.50
2019-01-19T03:12:18.659Z,83.40
2019-01-19T03:15:14.320Z,83.60
2019-01-19T03:17:54.833Z,83.50
2019-01-19T03:20:35.289Z,83.40
2019-01-19T03:23:15.769Z,83.30
2019-01-19T03:26:04.906Z,83.50
2019-01-19T03:29:04.020Z,83.50
2019-01-19T03:32:04.158Z,83.60
2019-01-19T03:34:51.212Z,83.40
2019-01-19T03:37:35.484Z,83.70
2019-01-19T03:40:28.365Z,84.00
2019-01-19T03:43:24.333Z,84.30
2019-01-19T03:46:11.617Z,84.50
2019-01-19T03:48:43.502Z,84.40
2019-01-19T03:51:27.599Z,84.30
2019-01-19T03:54:17.403Z,84.20
2019-01-19T03:56:58.576Z,84.20
2019-01-19T03:59:57.277Z,84.10
2019-01-19T04:02:52.476Z,84.20
2019-01-19T04:05:32.634Z,84.10
2019-01-19T04:08:37.482Z,84.10
2019-01-19T04:11:09.433Z,84.10
2019-01-19T04:13:56.524Z,84.30
2019-01-19T04:16:46.843Z,84.50
2019-01-19T04:19:21.730Z,84.60
2019-01-19T04:22:02.916Z,84.70
2019-01-19T04:24:34.719Z,85.00
2019-01-19T04:27:00.947Z,84.90
2019-01-19T04:29:27.137Z,85.10
2019-01-19T04:31:53.362Z,85.10
2019-01-19T04:34:20.228Z,85.00
2019-01-19T04:36:46.850Z,84.70
2019-01-19T04:39:13.838Z,84.50
2019-01-19T04:41:40.143Z,84.20
2019-01-19T04:44:06.367Z,84.00
2019-01-19T04:46:32.720Z,83.80
2019-01-19T04:48:59.007Z,83.50
2019-01-19T04:51:25.241Z,83.20
2019-01-19T04:53:51.439Z,83.20
2019-01-19T04:56:17.713Z,83.20
2019-01-19T04:58:43.963Z,83.20
2019-01-19T05:01:10.191Z,83.20
2019-01-19T05:03:36.381Z,83.10
2019-01-19T05:06:11.727Z,83.00
2019-01-19T05:08:30.991Z,82.80
2019-01-19T05:10:57.205Z,82.60
2019-01-19T05:13:23.479Z,82.50
2019-01-19T05:15:49.686Z,82.40
2019-01-19T05:18:16.384Z,82.30
2019-01-19T05:20:42.841Z,82.40
2019-01-19T05:23:10.767Z,82.50
2019-01-19T05:25:37.160Z,82.60
2019-01-19T05:28:03.389Z,82.60
2019-01-19T05:30:29.580Z,82.60
2019-01-19T05:32:55.757Z,82.50
2019-01-19T05:35:22.053Z,82.50
2019-01-19T05:37:48.651Z,82.50
2019-01-19T05:40:14.838Z,82.50
2019-01-19T05:42:41.073Z,82.70
2019-01-19T05:45:10.934Z,82.60
2019-01-19T05:47:37.136Z,82.70
2019-01-19T05:50:11.534Z,82.60
2019-01-19T05:52:37.783Z,82.50
2019-01-19T05:55:06.263Z,82.50
2019-01-19T05:57:32.619Z,82.50
2019-01-19T05:59:58.822Z,82.60
2019-01-19T06:02:27.330Z,82.60
2019-01-19T06:04:53.593Z,82.50
2019-01-19T06:07:19.773Z,82.40
2019-01-19T06:09:45.971Z,82.50
2019-01-19T06:12:13.355Z,82.40
2019-01-19T06:14:39.861Z,82.40
2019-01-19T06:17:06.075Z,82.40
2019-01-19T06:19:32.561Z,82.50
2019-01-19T06:21:59.073Z,82.50
2019-01-19T06:24:25.290Z,82.40
2019-01-19T06:26:51.509Z,82.40
2019-01-19T06:29:17.670Z,82.70
2019-01-19T06:31:44.240Z,82.40
2019-01-19T06:34:10.678Z,82.40
2019-01-19T06:36:36.876Z,82.30
2019-01-19T06:39:07.551Z,82.30
2019-01-19T06:41:33.758Z,82.20
2019-01-19T06:43:59.928Z,82.20
2019-01-19T06:46:26.180Z,82.30
2019-01-19T06:48:52.360Z,82.30
2019-01-19T06:51:18.518Z,82.30
2019-01-19T06:53:45.592Z,83.10
2019-01-19T06:56:11.929Z,82.20
2019-01-19T06:58:38.156Z,82.10
2019-01-19T07:01:04.360Z,82.20
2019-01-19T07:03:30.560Z,82.20
2019-01-19T07:05:56.735Z,82.30
2019-01-19T07:08:22.965Z,82.40
2019-01-19T07:10:49.176Z,82.50
2019-01-19T07:13:15.425Z,82.60
2019-01-19T07:15:41.584Z,82.60
2019-01-19T07:18:08.702Z,82.80
2019-01-19T07:20:37.257Z,82.80
2019-01-19T07:23:09.502Z,82.80
2019-01-19T07:25:35.812Z,82.90
2019-01-19T07:28:02.010Z,82.90
2019-01-19T07:30:28.231Z,83.20
2019-01-19T07:32:54.529Z,83.10
2019-01-19T07:35:20.698Z,84.40
2019-01-19T07:37:46.999Z,84.50
2019-01-19T07:40:17.474Z,83.90
2019-01-19T07:42:44.878Z,84.40
2019-01-19T07:45:13.645Z,84.80
2019-01-19T07:47:40.870Z,84.30
2019-01-19T07:50:11.067Z,84.30
2019-01-19T07:52:37.295Z,84.30
2019-01-19T07:55:08.310Z,84.40
2019-01-19T07:57:34.559Z,84.40
2019-01-19T08:00:00.994Z,84.60
2019-01-19T08:02:27.497Z,84.70
2019-01-19T08:04:53.758Z,84.70
2019-01-19T08:07:19.920Z,84.80
2019-01-19T08:09:46.143Z,84.90
2019-01-19T08:12:12.502Z,85.20
2019-01-19T08:14:39.295Z,85.30
2019-01-19T08:17:05.542Z,85.30
2019-01-19T08:19:34.215Z,85.50
2019-01-19T08:22:00.507Z,85.60
2019-01-19T08:24:26.756Z,86.10
2019-01-19T08:26:54.602Z,86.10
2019-01-19T08:29:20.801Z,86.00
2019-01-19T08:31:47.004Z,86.10
2019-01-19T08:34:17.470Z,86.20
2019-01-19T08:36:42.650Z,86.30
2019-01-19T08:39:09.105Z,87.00
2019-01-19T08:41:35.342Z,86.60
2019-01-19T08:44:08.607Z,86.60
2019-01-19T08:46:36.868Z,87.00
2019-01-19T08:49:03.446Z,86.80
2019-01-19T08:51:29.932Z,86.80
2019-01-19T08:53:56.251Z,86.80
2019-01-19T08:56:22.457Z,86.70
2019-01-19T08:58:56.592Z,86.90
2019-01-19T09:01:24.795Z,87.20
2019-01-19T09:03:51.461Z,87.20
2019-01-19T09:06:17.909Z,87.50
2019-01-19T09:08:46.353Z,87.00
2019-01-19T09:11:13.788Z,87.00
2019-01-19T09:13:40.696Z,87.00
2019-01-19T09:16:07.175Z,87.10
2019-01-19T09:18:34.409Z,87.00
2019-01-19T09:21:00.745Z,87.20
2019-01-19T09:23:28.857Z,87.00
2019-01-19T09:25:55.114Z,87.30
2019-01-19T09:28:21.765Z,87.40
2019-01-19T09:30:48.028Z,87.40
2019-01-19T09:33:14.350Z,87.30
2019-01-19T09:35:40.644Z,87.40
2019-01-19T09:38:07.339Z,87.90
2019-01-19T09:40:33.650Z,87.80
2019-01-19T09:43:00.160Z,87.90
2019-01-19T09:45:26.408Z,88.00
2019-01-19T09:47:52.622Z,87.90
2019-01-19T09:50:25.342Z,88.00
2019-01-19T09:52:51.566Z,87.80
2019-01-19T09:55:17.781Z,87.70
2019-01-19T09:57:44.760Z,87.50
2019-01-19T10:00:16.310Z,87.30
2019-01-19T10:02:44.408Z,87.70
2019-01-19T10:05:15.529Z,87.90
2019-01-19T10:07:48.235Z,88.00
2019-01-19T10:10:12.580Z,87.80
2019-01-19T10:12:38.795Z,87.90
2019-01-19T10:15:10.577Z,87.30
2019-01-19T10:17:36.757Z,87.10
2019-01-19T10:20:08.751Z,87.50
2019-01-19T10:22:34.939Z,88.20
2019-01-19T10:25:01.554Z,89.50
2019-01-19T10:27:28.144Z,90.50
2019-01-19T10:29:54.385Z,91.10
2019-01-19T10:32:20.580Z,91.70
2019-01-19T10:34:46.777Z,92.00
2019-01-19T10:37:16.046Z,92.20
2019-01-19T10:39:42.271Z,92.10
2019-01-19T10:42:08.730Z,92.00
2019-01-19T10:44:35.324Z,91.30
2019-01-19T10:47:01.587Z,91.30
2019-01-19T10:49:27.802Z,91.20
2019-01-19T10:51:59.392Z,90.70
2019-01-19T10:54:22.044Z,90.40
2019-01-19T10:56:48.201Z,90.40
2019-01-19T10:59:14.362Z,90.60
2019-01-19T11:01:40.543Z,90.30
2019-01-19T11:04:06.904Z,89.20
2019-01-19T11:06:33.054Z,87.60
2019-01-19T11:08:59.215Z,86.40
2019-01-19T11:11:25.435Z,86.90
2019-01-19T11:13:51.937Z,86.40
2019-01-19T11:16:18.117Z,86.20
2019-01-19T11:18:44.312Z,84.80
2019-01-19T11:21:10.841Z,85.00
2019-01-19T11:23:39.873Z,85.20
2019-01-19T11:26:07.673Z,83.60
2019-01-19T11:28:34.301Z,82.50
2019-01-19T11:31:00.467Z,82.10
2019-01-19T11:33:26.951Z,81.50
2019-01-19T11:35:55.946Z,80.90
2019-01-19T11:38:22.110Z,81.10
2019-01-19T11:40:48.470Z,79.70
2019-01-19T11:43:14.878Z,79.80
2019-01-19T11:45:41.193Z,80.50
2019-01-19T11:48:10.678Z,80.60
2019-01-19T11:50:36.885Z,80.50
2019-01-19T11:53:03.644Z,81.50
2019-01-19T11:55:29.838Z,78.80
2019-01-19T11:58:01.450Z,78.30
2019-01-19T12:00:35.473Z,77.80
2019-01-19T12:03:01.682Z,77.90
2019-01-19T12:05:28.227Z,78.40
2019-01-19T12:07:54.434Z,77.90
2019-01-19T12:10:27.327Z,76.20
2019-01-19T12:12:53.684Z,75.10
2019-01-19T12:15:20.199Z,74.80
2019-01-19T12:17:46.608Z,75.00
2019-01-19T12:20:33.262Z,73.90
2019-01-19T12:22:59.452Z,74.10
2019-01-19T12:25:25.917Z,74.30
2019-01-19T12:27:52.399Z,74.10
2019-01-19T12:30:30.554Z,74.00
2019-01-19T12:32:56.801Z,73.90
2019-01-19T12:35:23.327Z,73.70
2019-01-19T12:37:49.501Z,74.60
2019-01-19T12:40:22.324Z,74.10
2019-01-19T12:42:52.104Z,73.80
2019-01-19T12:45:26.539Z,72.70
2019-01-19T12:47:52.715Z,72.70
2019-01-19T12:50:22.768Z,73.20
2019-01-19T12:52:48.958Z,73.60
2019-01-19T12:55:17.353Z,74.40
2019-01-19T12:57:43.890Z,73.70
2019-01-19T13:00:19.974Z,75.20
2019-01-19T13:02:46.742Z,74.90
2019-01-19T13:05:33.617Z,75.00
2019-01-19T13:08:14.815Z,74.70
2019-01-19T13:10:52.770Z,74.80
2019-01-19T13:13:19.754Z,75.00
2019-01-19T13:15:51.734Z,75.80
2019-01-19T13:18:52.125Z,76.70
2019-01-19T13:21:41.583Z,75.60
2019-01-19T13:24:13.493Z,75.80
2019-01-19T13:27:22.931Z,76.30
2019-01-19T13:30:11.995Z,76.80
2019-01-19T13:33:03.276Z,77.10
2019-01-19T13:35:59.325Z,76.90
2019-01-19T13:38:33.950Z,77.20
2019-01-19T13:41:05.942Z,76.30
2019-01-19T13:43:40.862Z,75.90
2019-01-19T13:46:18.644Z,77.00
2019-01-19T13:49:22.078Z,76.50
2019-01-19T13:51:54.077Z,76.40
2019-01-19T13:54:48.583Z,77.30
2019-01-19T13:57:20.491Z,77.00
2019-01-19T14:00:18.560Z,75.80
2019-01-19T14:03:04.409Z,75.40
2019-01-19T14:06:07.893Z,74.30
2019-01-19T14:09:00.381Z,73.60
2019-01-19T14:12:10.009Z,73.90
2019-01-19T14:14:56.642Z,73.30
2019-01-19T14:17:40.147Z,76.90
2019-01-19T14:20:43.480Z,75.00
2019-01-19T14:23:30.499Z,76.10
2019-01-19T14:26:14.287Z,76.10
2019-01-19T14:29:10.765Z,76.80
2019-01-19T14:32:09.541Z,77.20
2019-01-19T14:35:10.463Z,78.00
2019-01-19T14:37:59.659Z,78.50
2019-01-19T14:43:16.329Z,79.60
2019-01-19T14:46:09.361Z,79.50
2019-01-19T14:48:52.847Z,79.80
2019-01-19T14:51:24.837Z,80.50
2019-01-19T14:54:23.301Z,80.40
2019-01-19T14:56:58.043Z,84.40
2019-01-19T14:59:51.316Z,80.40
2019-01-19T15:03:05.343Z,80.30
2019-01-19T15:06:04.613Z,80.70
2019-01-19T15:09:03.674Z,81.20
2019-01-19T15:11:49.372Z,80.40
2019-01-19T15:14:42.178Z,81.10
2019-01-19T15:17:28.629Z,81.20
2019-01-19T15:20:18.928Z,81.20
2019-01-19T15:23:33.062Z,81.30
2019-01-19T15:26:44.211Z,81.50
2019-01-19T15:29:19.173Z,81.40
2019-01-19T15:31:53.814Z,81.30
2019-01-19T15:35:04.940Z,82.60
2019-01-19T15:38:03.363Z,81.80
2019-01-19T15:41:03.860Z,81.20
2019-01-19T15:43:43.267Z,81.30
2019-01-19T15:46:46.632Z,81.50
2019-01-19T15:49:35.248Z,82.00
2019-01-19T15:52:19.504Z,81.90
2019-01-19T15:54:59.751Z,82.10
2019-01-19T15:57:31.706Z,81.90
2019-01-19T16:00:26.516Z,81.60
2019-01-19T16:03:16.103Z,81.30
2019-01-19T16:05:57.079Z,80.90
2019-01-19T16:09:06.593Z,81.50
2019-01-19T16:11:41.540Z,81.10
2019-01-19T16:14:43.004Z,81.70
2019-01-19T16:17:26.650Z,82.00
2019-01-19T16:20:06.975Z,82.40
2019-01-19T16:22:47.132Z,82.10
2019-01-19T16:25:40.461Z,81.60
2019-01-19T16:28:37.955Z,81.20
2019-01-19T16:31:24.864Z,80.90
2019-01-19T16:34:14.336Z,80.90
2019-01-19T16:36:52.260Z,81.00
2019-01-19T16:39:44.010Z,81.50
2019-01-19T16:42:34.045Z,81.50
2019-01-19T16:45:19.141Z,81.00
2019-01-19T16:47:56.631Z,80.80
2019-01-19T16:50:55.571Z,80.70
2019-01-19T16:53:38.824Z,80.50
2019-01-19T16:56:31.649Z,80.60
2019-01-19T16:59:09.453Z,80.80
2019-01-19T17:02:15.893Z,80.70
2019-01-19T17:04:59.203Z,80.60
2019-01-19T17:07:46.597Z,80.50
2019-01-19T17:10:51.328Z,80.50
2019-01-19T17:14:00.394Z,80.40
2019-01-19T17:16:35.694Z,80.40
2019-01-19T17:19:13.490Z,80.40
2019-01-19T17:22:13.538Z,80.50
2019-01-19T17:25:19.117Z,80.40
2019-01-19T17:28:05.587Z,80.40
2019-01-19T17:30:58.585Z,80.50
2019-01-19T17:33:42.192Z,80.60
2019-01-19T17:36:39.389Z,80.50
2019-01-19T17:39:32.631Z,80.70
2019-01-19T17:42:13.485Z,80.80
2019-01-19T17:44:57.039Z,80.80
2019-01-19T17:47:43.545Z,81.00
2019-01-19T17:50:45.576Z,80.80
2019-01-19T17:53:35.163Z,80.90
2019-01-19T17:56:13.036Z,80.90
2019-01-19T17:58:56.707Z,80.80
2019-01-19T18:01:31.330Z,80.90
2019-01-19T18:04:16.257Z,80.80
2019-01-19T18:07:03.452Z,80.80
2019-01-19T18:10:10.624Z,80.90
2019-01-19T18:13:12.363Z,80.80
2019-01-19T18:15:59.396Z,81.60
2019-01-19T18:18:40.608Z,80.80
2019-01-19T18:21:18.020Z,81.20
2019-01-19T18:24:26.021Z,81.20
2019-01-19T18:27:17.612Z,81.10
2019-01-19T18:30:14.090Z,81.10
2019-01-19T18:32:51.600Z,81.20
2019-01-19T18:35:28.902Z,81.20
2019-01-19T18:38:32.813Z,81.10
2019-01-19T18:41:20.020Z,81.00
2019-01-19T18:44:08.968Z,81.00
2019-01-19T18:46:46.845Z,80.90
2019-01-19T18:49:41.740Z,80.90
2019-01-19T18:52:34.531Z,80.90
2019-01-19T18:55:15.543Z,80.70
2019-01-19T18:58:36.603Z,80.70
2019-01-19T19:01:28.300Z,80.70
2019-01-19T19:04:17.113Z,80.80
2019-01-19T19:07:12.022Z,80.80
2019-01-19T19:10:18.663Z,80.90
2019-01-19T19:13:21.447Z,81.60
2019-01-19T19:15:57.949Z,80.90
2019-01-19T19:18:32.900Z,81.00
2019-01-19T19:21:34.298Z,81.20
2019-01-19T19:24:42.342Z,81.20
2019-01-19T19:27:19.577Z,81.20
2019-01-19T19:30:12.660Z,81.30
2019-01-19T19:32:50.840Z,81.50
2019-01-19T19:35:55.797Z,81.60
2019-01-19T19:38:33.618Z,81.60
2019-01-19T19:41:20.736Z,81.50
2019-01-19T19:44:11.197Z,81.50
2019-01-19T19:46:54.165Z,81.60
2019-01-19T19:49:43.398Z,81.50
2019-01-19T19:52:11.483Z,81.40
2019-01-19T19:54:37.871Z,81.40
2019-01-19T19:57:04.612Z,81.40
2019-01-19T19:59:30.957Z,81.40
2019-01-19T20:01:57.175Z,81.50
2019-01-19T20:04:23.491Z,82.20
2019-01-19T20:06:49.740Z,81.50
2019-01-19T20:09:16.251Z,81.50
2019-01-19T20:11:42.844Z,81.50
2019-01-19T20:14:09.299Z,81.50
2019-01-19T20:16:37.095Z,81.60
2019-01-19T20:19:03.394Z,82.40
2019-01-19T20:21:30.100Z,81.70
2019-01-19T20:23:56.379Z,81.60
2019-01-19T20:26:24.451Z,81.70
2019-01-19T20:28:50.692Z,81.60
2019-01-19T20:31:17.153Z,81.60
2019-01-19T20:33:43.426Z,81.60
2019-01-19T20:36:09.869Z,81.60
2019-01-19T20:38:36.197Z,81.80
2019-01-19T20:41:02.629Z,81.70
2019-01-19T20:43:28.899Z,81.70
2019-01-19T20:45:56.365Z,81.70
2019-01-19T20:48:22.748Z,81.70
2019-01-19T20:50:49.084Z,81.60
2019-01-19T20:53:15.317Z,81.60
2019-01-19T20:55:41.513Z,81.70
2019-01-19T20:58:07.773Z,81.80
2019-01-19T21:00:33.935Z,82.00
2019-01-19T21:03:00.577Z,82.00
2019-01-19T21:05:26.896Z,81.90
2019-01-19T21:07:53.133Z,82.00
2019-01-19T21:10:19.347Z,82.00
2019-01-19T21:12:45.714Z,81.90
2019-01-19T21:15:15.325Z,82.10
2019-01-19T21:17:42.234Z,82.00
2019-01-19T21:20:12.459Z,82.30
2019-01-19T21:22:38.719Z,82.20
2019-01-19T21:25:07.979Z,82.20
2019-01-19T21:27:34.208Z,82.20
2019-01-19T21:30:00.677Z,82.10
2019-01-19T21:32:26.906Z,82.10
2019-01-19T21:34:53.104Z,82.00
2019-01-19T21:37:19.560Z,81.90
2019-01-19T21:39:45.732Z,81.80
2019-01-19T21:42:11.998Z,81.80
2019-01-19T21:44:38.467Z,81.80
2019-01-19T21:47:04.750Z,81.90
2019-01-19T21:49:30.938Z,81.90
2019-01-19T21:51:57.122Z,82.00
2019-01-19T21:54:23.371Z,82.00
2019-01-19T21:56:49.532Z,82.00
2019-01-19T21:59:15.924Z,82.10
2019-01-19T22:01:42.281Z,82.20
2019-01-19T22:04:09.101Z,82.30
2019-01-19T22:06:35.257Z,82.30
2019-01-19T22:09:01.478Z,82.80
2019-01-19T22:11:27.685Z,82.30
2019-01-19T22:13:53.867Z,82.50
2019-01-19T22:16:20.092Z,82.60
2019-01-19T22:18:46.359Z,82.50
2019-01-19T22:21:12.625Z,82.40
2019-01-19T22:23:38.880Z,82.40
2019-01-19T22:26:07.158Z,82.20
2019-01-19T22:28:33.450Z,82.10
2019-01-19T22:30:59.993Z,82.10
2019-01-19T22:33:26.473Z,81.90
2019-01-19T22:35:52.672Z,81.80
2019-01-19T22:38:18.924Z,81.80
2019-01-19T22:40:45.161Z,81.70
2019-01-19T22:43:12.024Z,81.70
2019-01-19T22:45:38.212Z,81.70
2019-01-19T22:48:06.773Z,81.80
2019-01-19T22:50:32.933Z,81.60
2019-01-19T22:52:59.152Z,81.60
2019-01-19T22:55:25.798Z,81.70
2019-01-19T22:57:52.255Z,81.70
2019-01-19T23:00:29.105Z,81.70
2019-01-19T23:02:55.308Z,81.60
2019-01-19T23:05:21.552Z,81.70
2019-01-19T23:07:47.715Z,81.60
2019-01-19T23:10:14.000Z,81.60
2019-01-19T23:12:40.195Z,81.60
2019-01-19T23:15:08.833Z,81.50
2019-01-19T23:17:35.026Z,81.60
2019-01-19T23:20:07.519Z,81.80
2019-01-19T23:22:33.972Z,81.60
2019-01-19T23:25:00.502Z,81.60
2019-01-19T23:27:26.677Z,82.10
2019-01-19T23:29:53.197Z,81.60
2019-01-19T23:32:19.616Z,81.70
2019-01-19T23:34:45.898Z,81.80
2019-01-19T23:37:12.120Z,81.90
2019-01-19T23:39:38.357Z,82.00
2019-01-19T23:42:04.503Z,82.10
2019-01-19T23:44:30.720Z,82.10
2019-01-19T23:46:56.929Z,82.00
2019-01-19T23:49:23.152Z,82.10
2019-01-19T23:51:49.746Z,82.00
2019-01-19T23:54:16.037Z,82.00
2019-01-19T23:56:42.199Z,82.00
2019-01-19T23:59:08.399Z,81.90
